Pays
Station

 

Conditions  météo  pour  Chrysoupoli Airport  -  Grèce    Grèce

  
15 °C
    
 
 

METAR pour Chrysoupoli Airport :

LGKV 230450Z 05003KT CAVOK 15/13 Q1017

 

Voici le bulletin pour Chrysoupoli Airport - Grèce.
 
Le bulletin a été fait il y a 23 minutes, à 04:50 UTC .
Le vent soufflait à la vitesse de 1.5 mètres par seconde de Nord-est (050°).
 
La température était de 15 °C, avec un point de rosée à 13 °C.
La pression atmosphérique était de 1017 hPa.
L'humidité relative était de 87.8%.
 
Il y avait pas de nuages en-dessous de 1500 mètres et pas de cumulonimbus.
 
La visibilité globale était de supérieure à 10 kilomètres.
 

 
 
 

Pays :   A   B   C   D   E   F   G   H   I   J   K   L   M   N   O   P   Q   R   S   T   U   V   W   Y   Z

 

Partenaires :  Info Météo avec Met'info
Météo Marine avec MeteoMarine.net
Infos Site  |  Infos Légales  |  Crédits  |  Confidentialité
Contactez-nous  |  Ajouter aux favoris
© 2013-2018 METAR - Tous droits réservés